Terminal Aerodrome Forecast
Issued by NWS Grand Junction, CO

Home | Current Version | Previous Version | Text Only | Print | Product List | Glossary On
Versions: 1 2 3 4 5 6 7 8 9 10 11 12
000
FTUS45 KGJT 031127
TAFGJT
TAF
KGJT 031127Z 0312/0412 07003KT P6SM SKC
     FM031700 14005KT P6SM SKC
     FM032100 31004KT P6SM FEW250
     FM040100 01003KT P6SM FEW250
     FM040500 09006KT P6SM FEW200=

USA.gov is the U.S. government's official web portal to all federal, state and local government web resources and services.